createdAt,value
2017-10-12T13:54:58.455Z,53.31
2017-10-12T13:55:58.444Z,53.61
2017-10-12T13:57:51.423Z,52.45
2017-10-12T13:58:51.447Z,51.26
2017-10-12T14:00:44.731Z,52.54
2017-10-12T14:01:44.438Z,54.12
2017-10-12T14:03:38.508Z,58.55
2017-10-12T14:04:38.138Z,59.96
2017-10-12T14:05:38.176Z,61.56
2017-10-12T14:06:38.237Z,62.42
2017-10-12T14:07:38.258Z,62.90
2017-10-12T14:08:38.329Z,63.83
2017-10-12T14:09:38.420Z,64.02
2017-10-12T14:10:38.404Z,63.92
2017-10-12T14:11:38.428Z,64.69
2017-10-12T14:12:38.463Z,64.69
2017-10-12T14:13:38.504Z,64.98
2017-10-12T14:14:38.545Z,65.08
2017-10-12T14:15:38.583Z,65.08
2017-10-12T14:16:38.624Z,65.08
2017-10-12T14:17:38.666Z,65.17
2017-10-12T14:18:38.704Z,65.26
2017-10-12T14:19:38.746Z,65.08
2017-10-12T14:20:38.791Z,65.17
2017-10-12T14:21:38.832Z,65.26
2017-10-12T14:22:38.868Z,65.75
2017-10-12T14:23:38.915Z,65.65
2017-10-12T14:24:38.945Z,65.75
2017-10-12T14:25:39.098Z,65.65
2017-10-12T14:26:39.025Z,65.84
2017-10-12T14:27:39.065Z,65.75
2017-10-12T14:28:39.156Z,65.65
2017-10-12T14:29:39.142Z,65.75
2017-10-12T14:30:39.188Z,65.55
2017-10-12T14:31:39.230Z,66.42
2017-10-12T14:32:39.297Z,65.65
2017-10-12T14:33:39.299Z,66.61
2017-10-12T14:34:39.337Z,66.51
2017-10-12T14:35:39.381Z,66.89
2017-10-12T14:36:39.426Z,66.99
2017-10-12T14:37:39.461Z,66.42
2017-10-12T14:38:39.496Z,66.32
2017-10-12T14:39:39.534Z,66.51
2017-10-12T14:40:39.577Z,66.51
2017-10-12T14:41:39.636Z,66.61
2017-10-12T14:42:39.660Z,66.71
2017-10-12T14:43:39.694Z,66.71
2017-10-12T14:44:39.732Z,66.22
2017-10-12T14:45:39.770Z,66.03
2017-10-12T14:46:39.815Z,66.89
2017-10-12T14:47:39.851Z,66.89
2017-10-12T14:48:39.891Z,66.99
2017-10-12T14:49:39.934Z,67.09
2017-10-12T14:50:39.965Z,66.99
2017-10-12T14:51:40.004Z,66.96
2017-10-12T14:52:40.054Z,67.09
2017-10-12T14:53:40.097Z,67.57
2017-10-12T14:54:40.122Z,67.09
2017-10-12T14:55:40.163Z,67.28
2017-10-12T14:56:40.204Z,66.80
2017-10-12T14:57:40.240Z,66.99
2017-10-12T14:58:40.279Z,66.99
2017-10-12T14:59:40.317Z,67.09
2017-10-12T15:00:40.358Z,67.09
2017-10-12T15:01:40.394Z,66.51
2017-10-12T15:02:40.438Z,67.09
2017-10-12T15:03:40.473Z,66.61
2017-10-12T15:04:40.519Z,66.61
2017-10-12T15:05:40.560Z,65.75
2017-10-12T15:06:40.602Z,65.84
2017-10-12T15:07:40.636Z,65.26
2017-10-12T15:08:40.672Z,65.23
2017-10-12T15:09:40.707Z,66.22
2017-10-12T15:10:40.765Z,65.65
2017-10-12T15:11:40.790Z,65.84
2017-10-12T15:12:40.827Z,65.55
2017-10-12T15:13:40.886Z,64.95
2017-10-12T15:14:40.909Z,65.05
2017-10-12T15:15:40.979Z,64.95
2017-10-12T15:16:40.984Z,65.23
2017-10-12T15:17:41.020Z,65.42
2017-10-12T15:18:41.160Z,65.52
2017-10-12T15:19:41.098Z,65.33
2017-10-12T15:20:41.140Z,65.23
2017-10-12T15:21:41.174Z,65.81
2017-10-12T15:22:41.216Z,65.52
2017-10-12T15:23:41.255Z,64.85
2017-10-12T15:24:41.292Z,64.95
2017-10-12T15:25:41.331Z,65.33
2017-10-12T15:26:41.378Z,65.05
2017-10-12T15:27:41.416Z,64.66
2017-10-12T15:28:41.449Z,64.56
2017-10-12T15:29:41.486Z,65.05
2017-10-12T15:30:41.526Z,65.14
2017-10-12T15:31:41.571Z,64.76
2017-10-12T15:32:41.602Z,65.23
2017-10-12T15:33:41.645Z,64.95
2017-10-12T15:34:41.680Z,65.05
2017-10-12T15:35:41.734Z,64.76
2017-10-12T15:36:41.758Z,64.85
2017-10-12T15:37:41.794Z,64.76
2017-10-12T15:38:41.835Z,65.33
2017-10-12T15:39:41.885Z,64.66
2017-10-12T15:40:41.911Z,65.14
2017-10-12T15:41:41.954Z,64.56
2017-10-12T15:42:41.994Z,64.76
2017-10-12T15:43:42.027Z,64.53
2017-10-12T15:44:42.066Z,64.92
2017-10-12T15:45:42.111Z,64.82
2017-10-12T15:46:42.144Z,64.72
2017-10-12T15:47:42.184Z,64.72
2017-10-12T15:48:42.241Z,64.53
2017-10-12T15:49:42.262Z,65.01
2017-10-12T15:50:42.295Z,65.01
2017-10-12T15:51:42.344Z,64.43
2017-10-12T15:52:42.390Z,65.11
2017-10-12T15:53:42.414Z,65.20
2017-10-12T15:54:42.455Z,64.72
2017-10-12T15:55:42.488Z,64.63
2017-10-12T15:56:42.527Z,64.82
2017-10-12T15:57:42.564Z,64.63
2017-10-12T15:58:42.604Z,64.63
2017-10-12T15:59:42.653Z,65.30
2017-10-12T16:00:42.683Z,65.01
2017-10-12T16:01:42.723Z,65.01
2017-10-12T16:02:42.759Z,64.43
2017-10-12T16:03:42.793Z,64.88
2017-10-12T16:04:42.830Z,64.40
2017-10-12T16:05:42.871Z,64.69
2017-10-12T16:06:42.911Z,64.88
2017-10-12T16:07:42.952Z,64.50
2017-10-12T16:08:43.139Z,65.26
2017-10-12T16:09:43.023Z,64.88
2017-10-12T16:10:43.059Z,65.36
2017-10-12T16:11:43.097Z,64.88
2017-10-12T16:12:43.135Z,65.17
2017-10-12T16:13:43.174Z,65.08
2017-10-12T16:14:43.219Z,64.98
2017-10-12T16:15:43.250Z,64.98
2017-10-12T16:16:43.286Z,65.08
2017-10-12T16:17:43.323Z,64.88
2017-10-12T16:18:43.363Z,64.69
2017-10-12T16:19:43.399Z,64.69
2017-10-12T16:20:43.454Z,64.59
2017-10-12T16:21:43.475Z,64.88
2017-10-12T16:22:58.518Z,64.88
2017-10-12T16:23:43.556Z,64.69
2017-10-12T16:24:43.622Z,65.14
2017-10-12T16:25:43.623Z,64.50
2017-10-12T16:26:43.682Z,64.50
2017-10-12T16:27:43.702Z,64.98
2017-10-12T16:28:43.737Z,64.69
2017-10-12T16:29:43.776Z,64.56
2017-10-12T16:30:43.827Z,64.47
2017-10-12T16:31:43.858Z,64.85
2017-10-12T16:33:43.928Z,65.23
2017-10-12T16:34:43.964Z,64.85
2017-10-12T16:35:44.004Z,63.99
2017-10-12T16:36:44.043Z,64.09
2017-10-12T16:37:44.077Z,64.75
2017-10-12T16:38:44.113Z,64.47
2017-10-12T16:39:44.151Z,64.09
2017-10-12T16:40:44.191Z,64.09
2017-10-12T16:41:44.259Z,63.89
2017-10-12T16:42:44.271Z,64.09
2017-10-12T16:43:44.317Z,63.99
2017-10-12T16:44:44.339Z,63.23
2017-10-12T16:45:44.378Z,62.74
2017-10-12T16:46:44.446Z,62.84
2017-10-12T16:47:44.448Z,63.42
2017-10-12T16:48:44.502Z,62.74
2017-10-12T16:49:44.535Z,63.13
2017-10-12T16:51:44.605Z,63.42
2017-10-12T16:52:44.649Z,63.13
2017-10-12T16:53:44.677Z,62.27
2017-10-12T16:54:44.712Z,62.84
2017-10-12T16:55:44.751Z,62.74
2017-10-12T16:56:44.795Z,62.94
2017-10-12T16:57:44.824Z,63.42
2017-10-12T16:58:44.872Z,63.03
2017-10-12T16:59:44.898Z,63.32
2017-10-12T17:00:44.937Z,62.84
2017-10-12T17:01:44.982Z,62.74
2017-10-12T17:02:45.010Z,62.74
2017-10-12T17:03:45.051Z,63.23
2017-10-12T17:04:45.085Z,62.94
2017-10-12T17:05:45.128Z,63.42
2017-10-12T17:06:45.203Z,63.80
2017-10-12T17:07:45.198Z,63.89
2017-10-12T17:08:45.234Z,63.70
2017-10-12T17:09:45.271Z,63.89
2017-10-12T17:10:45.312Z,63.99
2017-10-12T17:11:45.354Z,63.42
2017-10-12T17:12:45.383Z,63.99
2017-10-12T17:13:45.423Z,63.99
2017-10-12T17:14:45.477Z,63.51
2017-10-12T17:15:45.499Z,64.09
2017-10-12T17:16:45.537Z,64.09
2017-10-12T17:17:45.577Z,63.86
2017-10-12T17:18:45.608Z,64.05
2017-10-12T17:19:45.653Z,63.96
2017-10-12T17:21:45.733Z,63.76
2017-10-12T17:22:45.755Z,64.43
2017-10-12T17:24:45.831Z,64.72
2017-10-12T17:25:45.877Z,64.15
2017-10-12T17:26:45.912Z,64.34
2017-10-12T17:27:45.966Z,64.34
2017-10-12T17:28:45.981Z,63.96
2017-10-12T17:29:46.016Z,64.34
2017-10-12T17:30:46.058Z,64.34
2017-10-12T17:31:46.094Z,64.62
2017-10-12T17:32:46.125Z,64.25
2017-10-12T17:33:46.196Z,64.72
2017-10-12T17:34:46.202Z,64.43
2017-10-12T17:35:46.239Z,64.53
2017-10-12T17:36:46.281Z,64.62
2017-10-12T17:37:46.320Z,64.62
2017-10-12T17:38:46.372Z,64.91
2017-10-12T17:39:46.391Z,65.01
2017-10-12T17:40:46.424Z,64.72
2017-10-12T17:41:46.464Z,64.82
2017-10-12T17:42:46.497Z,64.72
2017-10-12T17:43:46.536Z,65.01
2017-10-12T17:44:46.577Z,64.82
2017-10-12T17:45:46.609Z,65.30
2017-10-12T17:46:46.647Z,65.30
2017-10-12T17:47:46.682Z,65.39
2017-10-12T17:48:46.724Z,65.20
2017-10-12T17:49:46.808Z,65.58
2017-10-12T17:50:46.792Z,65.30
2017-10-12T17:51:46.829Z,65.11
2017-10-12T17:52:46.867Z,65.58
2017-10-12T17:53:46.915Z,65.87
2017-10-12T17:54:46.943Z,65.97
2017-10-12T17:55:46.978Z,65.68
2017-10-12T17:56:47.019Z,65.58
2017-10-12T17:57:47.052Z,65.48
2017-10-12T17:58:47.089Z,65.68
2017-10-12T17:59:47.128Z,66.44
2017-10-12T18:00:47.167Z,65.77
2017-10-12T18:01:47.205Z,65.68
2017-10-12T18:02:47.238Z,65.77
2017-10-12T18:03:47.273Z,65.68
2017-10-12T18:04:47.313Z,65.68
2017-10-12T18:05:47.349Z,65.68
2017-10-12T18:06:47.387Z,66.54
2017-10-12T18:07:47.422Z,66.44
2017-10-12T18:08:47.461Z,66.54
2017-10-12T18:09:47.493Z,66.44
2017-10-12T18:10:47.531Z,66.06
2017-10-12T18:12:47.605Z,66.25
2017-10-12T18:13:47.640Z,66.79
2017-10-12T18:14:47.691Z,67.02
2017-10-12T18:15:47.715Z,67.36
2017-10-12T18:16:47.753Z,66.83
2017-10-12T18:17:47.788Z,66.79
2017-10-12T18:18:47.828Z,66.73
2017-10-12T18:19:47.864Z,67.08
2017-10-12T18:20:47.903Z,67.21
2017-10-12T18:21:47.939Z,68.13
2017-10-12T18:22:47.973Z,67.27
2017-10-12T18:23:48.009Z,66.89
2017-10-12T18:24:48.046Z,67.65
2017-10-12T18:25:48.082Z,66.99
2017-10-12T18:26:48.126Z,67.94
2017-10-12T18:27:48.159Z,68.13
2017-10-12T18:28:48.193Z,66.99
2017-10-12T18:29:48.230Z,67.18
2017-10-12T18:30:48.269Z,66.99
2017-10-12T18:31:48.304Z,67.75
2017-10-12T18:32:48.342Z,67.88
2017-10-12T18:33:48.376Z,67.65
2017-10-12T18:34:48.414Z,67.46
2017-10-12T18:35:48.456Z,67.78
2017-10-12T18:36:48.489Z,68.16
2017-10-12T18:37:48.522Z,67.84
2017-10-12T18:38:48.561Z,68.13
2017-10-12T18:39:48.606Z,67.75
2017-10-12T18:40:48.635Z,68.13
2017-10-12T18:41:48.675Z,67.65
2017-10-12T18:42:48.707Z,67.65
2017-10-12T18:43:48.754Z,67.46
2017-10-12T18:44:48.782Z,67.75
2017-10-12T18:45:48.813Z,67.84
2017-10-12T18:46:48.853Z,67.49
2017-10-12T18:47:48.892Z,68.23
2017-10-12T18:48:48.928Z,68.26
2017-10-12T18:49:48.965Z,67.65
2017-10-12T18:50:48.999Z,68.23
2017-10-12T18:51:49.042Z,67.75
2017-10-12T18:52:49.074Z,67.84
2017-10-12T18:53:49.110Z,68.13
2017-10-12T18:54:49.145Z,68.04
2017-10-12T18:55:49.184Z,67.84
2017-10-12T18:56:49.220Z,68.13
2017-10-12T18:57:49.258Z,68.32
2017-10-12T18:58:49.296Z,68.13
2017-10-12T18:59:49.331Z,68.90
2017-10-12T19:00:49.366Z,69.27
2017-10-12T19:01:49.406Z,68.70
2017-10-12T19:02:49.442Z,68.61
2017-10-12T19:03:49.483Z,69.66
2017-10-12T19:04:49.518Z,68.70
2017-10-12T19:05:49.548Z,68.80
2017-10-12T19:06:49.587Z,68.80
2017-10-12T19:07:49.622Z,68.90
2017-10-12T19:08:49.664Z,68.99
2017-10-12T19:09:49.695Z,69.56
2017-10-12T19:10:49.736Z,70.81
2017-10-12T19:11:49.776Z,70.04
2017-10-12T19:12:49.818Z,70.71
2017-10-12T19:13:49.883Z,70.42
2017-10-12T19:14:49.878Z,70.33
2017-10-12T19:15:49.917Z,70.14
2017-10-12T19:16:49.955Z,70.71
2017-10-12T19:18:50.026Z,69.95
2017-10-12T19:19:50.066Z,70.42
2017-10-12T19:20:50.100Z,70.90
2017-10-12T19:21:50.141Z,71.00
2017-10-12T19:22:50.173Z,70.14
2017-10-12T19:23:50.210Z,70.81
2017-10-12T19:24:50.246Z,70.42
2017-10-12T19:25:50.281Z,70.04
2017-10-12T19:26:50.324Z,70.71
2017-10-12T19:27:50.356Z,70.71
2017-10-12T19:28:50.394Z,70.23
2017-10-12T19:29:50.432Z,70.81
2017-10-12T19:30:50.469Z,70.23
2017-10-12T19:31:50.534Z,70.71
2017-10-12T19:32:50.542Z,70.81
2017-10-12T19:33:50.573Z,70.33
2017-10-12T19:34:50.610Z,70.90
2017-10-12T19:35:50.648Z,70.52
2017-10-12T19:36:50.686Z,70.61
2017-10-12T19:37:50.723Z,70.90
2017-10-12T19:38:50.760Z,71.00
2017-10-12T19:39:50.794Z,70.90
2017-10-12T19:41:20.381Z,71.47
2017-10-12T19:41:50.866Z,71.57
2017-10-12T19:42:50.904Z,71.86
2017-10-12T19:43:50.940Z,71.38
2017-10-12T19:44:50.976Z,71.00
2017-10-12T19:45:51.017Z,71.38
2017-10-12T19:46:51.052Z,71.38
2017-10-12T19:47:51.096Z,70.81
2017-10-12T19:48:51.123Z,71.15
2017-10-12T19:49:51.159Z,71.72
2017-10-12T19:50:51.196Z,71.34
2017-10-12T19:51:51.240Z,72.01
2017-10-12T19:52:51.275Z,71.72
2017-10-12T19:53:51.307Z,72.11
2017-10-12T19:54:51.343Z,71.92
2017-10-12T19:55:51.378Z,72.39
2017-10-12T19:56:51.420Z,72.30
2017-10-12T19:57:51.450Z,72.11
2017-10-12T19:59:06.501Z,72.01
2017-10-12T19:59:51.525Z,72.30
2017-10-12T20:00:51.561Z,71.92
2017-10-12T20:01:51.604Z,72.11
2017-10-12T20:02:51.633Z,72.11
2017-10-12T20:03:51.683Z,72.68
2017-10-12T20:04:51.709Z,72.30
2017-10-12T20:05:51.742Z,72.30
2017-10-12T20:06:51.778Z,71.92
2017-10-12T20:07:51.815Z,72.49
2017-10-12T20:08:51.855Z,72.58
2017-10-12T20:09:51.889Z,72.87
2017-10-12T20:10:51.929Z,72.78
2017-10-12T20:11:51.966Z,72.97
2017-10-12T20:12:51.996Z,72.78
2017-10-12T20:14:21.663Z,72.87
2017-10-12T20:14:52.074Z,72.30
2017-10-12T20:15:52.107Z,72.11
2017-10-12T20:16:52.158Z,72.01
2017-10-12T20:17:52.178Z,72.30
2017-10-12T20:18:52.218Z,72.30
2017-10-12T20:19:52.251Z,72.11
2017-10-12T20:20:52.288Z,72.30
2017-10-12T20:21:52.321Z,72.20
2017-10-12T20:22:52.359Z,71.82
2017-10-12T20:24:52.432Z,72.01
2017-10-12T20:25:52.468Z,72.01
2017-10-12T20:26:52.507Z,71.92
2017-10-12T20:27:52.539Z,72.11
2017-10-12T20:28:52.580Z,71.72
2017-10-12T20:29:52.616Z,71.44
2017-10-12T20:30:52.651Z,71.25
2017-10-12T20:31:52.688Z,71.34
2017-10-12T20:32:52.758Z,71.44
2017-10-12T20:33:52.758Z,71.63
2017-10-12T20:34:52.798Z,71.44
2017-10-12T20:35:52.854Z,71.15
2017-10-12T20:36:52.915Z,71.63
2017-10-12T20:37:52.901Z,71.15
2017-10-12T20:38:52.940Z,71.63
2017-10-12T20:39:52.973Z,71.92
2017-10-12T20:40:53.010Z,71.44
2017-10-12T20:42:53.083Z,72.11
2017-10-12T20:43:53.120Z,71.63
2017-10-12T20:44:53.155Z,71.34
2017-10-12T20:45:53.189Z,71.15
2017-10-12T20:46:53.232Z,71.63
2017-10-12T20:47:53.265Z,70.77
2017-10-12T20:48:53.306Z,70.96
2017-10-12T20:49:53.335Z,70.67
2017-10-12T20:50:53.379Z,71.15
2017-10-12T20:51:53.406Z,70.96
2017-10-12T20:52:53.443Z,71.53
2017-10-12T20:53:53.479Z,71.72
2017-10-12T20:55:53.552Z,71.63
2017-10-12T20:56:53.595Z,71.15
2017-10-12T20:57:53.625Z,71.63
2017-10-12T20:58:53.659Z,71.72
2017-10-12T20:59:53.699Z,71.53
2017-10-12T21:00:53.736Z,71.69
2017-10-12T21:01:53.784Z,71.53
2017-10-12T21:02:53.804Z,70.73
2017-10-12T21:03:53.840Z,71.78
2017-10-12T21:04:53.879Z,71.21
2017-10-12T21:05:53.914Z,71.21
2017-10-12T21:06:53.949Z,71.12
2017-10-12T21:07:53.994Z,70.92
2017-10-12T21:08:54.020Z,71.31
2017-10-12T21:09:54.053Z,70.73
2017-10-12T21:10:54.090Z,71.12
2017-10-12T21:11:54.130Z,71.59
2017-10-12T21:12:54.164Z,71.31
2017-10-12T21:13:54.200Z,71.21
2017-10-12T21:14:54.239Z,71.31
2017-10-12T21:15:54.270Z,71.12
2017-10-12T21:16:54.310Z,71.21
2017-10-12T21:17:54.341Z,71.02
2017-10-12T21:18:54.381Z,71.12
2017-10-12T21:19:54.415Z,71.12
2017-10-12T21:20:54.453Z,71.12
2017-10-12T21:21:54.489Z,71.12
2017-10-12T21:22:54.523Z,71.31
2017-10-12T21:23:54.562Z,71.59
2017-10-12T21:24:54.594Z,71.69
2017-10-12T21:25:54.633Z,71.88
2017-10-12T21:26:54.668Z,71.98
2017-10-12T21:27:54.703Z,71.69
2017-10-12T21:28:54.743Z,71.69
2017-10-12T21:29:54.774Z,71.21
2017-10-12T21:30:54.812Z,72.07
2017-10-12T21:31:54.848Z,71.31
2017-10-12T21:32:54.883Z,71.41
2017-10-12T21:33:54.924Z,71.50
2017-10-12T21:34:54.957Z,71.69
2017-10-12T21:35:54.991Z,71.88
2017-10-12T21:36:55.050Z,71.69
2017-10-12T21:37:55.061Z,71.12
2017-10-12T21:38:55.096Z,72.26
2017-10-12T21:39:55.133Z,71.69
2017-10-12T21:40:55.173Z,72.17
2017-10-12T21:41:55.205Z,72.07
2017-10-12T21:42:55.242Z,71.98
2017-10-12T21:43:55.284Z,71.98
2017-10-12T21:44:55.321Z,71.69
2017-10-12T21:45:55.346Z,72.36
2017-10-12T21:46:55.385Z,72.45
2017-10-12T21:47:55.417Z,71.98
2017-10-12T21:48:55.454Z,72.07
2017-10-12T21:49:55.491Z,72.74
2017-10-12T21:50:55.527Z,72.36
2017-10-12T21:51:55.565Z,72.64
2017-10-12T21:52:55.598Z,72.45
2017-10-12T21:53:55.632Z,72.64
2017-10-12T21:54:55.667Z,72.42
2017-10-12T21:55:55.708Z,73.32
2017-10-12T21:56:55.742Z,73.32
2017-10-12T21:57:55.775Z,72.74
2017-10-12T21:58:55.810Z,72.74
2017-10-12T21:59:55.846Z,73.32
2017-10-12T22:00:55.883Z,72.93
2017-10-12T22:01:55.919Z,72.36
2017-10-12T22:02:55.951Z,72.89
2017-10-12T22:03:56.018Z,72.80
2017-10-12T22:04:56.026Z,72.45
2017-10-12T22:05:56.060Z,72.32
2017-10-12T22:06:56.098Z,72.80
2017-10-12T22:07:56.135Z,72.51
2017-10-12T22:08:56.174Z,73.32
2017-10-12T22:09:56.201Z,73.66
2017-10-12T22:10:56.242Z,73.37
2017-10-12T22:11:56.274Z,73.47
2017-10-12T22:12:56.314Z,73.28
2017-10-12T22:13:56.348Z,73.37
2017-10-12T22:14:56.397Z,73.37
2017-10-12T22:15:56.417Z,73.37
2017-10-12T22:16:56.457Z,73.85
2017-10-12T22:17:56.491Z,73.47
2017-10-12T22:18:56.522Z,73.66
2017-10-12T22:19:56.558Z,73.56
2017-10-12T22:20:56.594Z,73.56
2017-10-12T22:21:56.630Z,73.85
2017-10-12T22:22:56.666Z,73.47
2017-10-12T22:23:56.700Z,73.85
2017-10-12T22:24:56.744Z,73.75
2017-10-12T22:25:56.774Z,74.04
2017-10-12T22:26:56.811Z,74.04
2017-10-12T22:27:56.842Z,73.85
2017-10-12T22:28:56.880Z,74.13
2017-10-12T22:29:56.917Z,74.13
2017-10-12T22:30:56.951Z,73.94
2017-10-12T22:31:56.986Z,74.42
2017-10-12T22:32:57.022Z,74.61
2017-10-12T22:33:57.056Z,74.52
2017-10-12T22:34:57.092Z,74.42
2017-10-12T22:35:57.130Z,74.52
2017-10-12T22:36:57.160Z,74.52
2017-10-12T22:37:57.196Z,74.52
2017-10-12T22:38:57.233Z,74.42
2017-10-12T22:39:57.272Z,74.52
2017-10-12T22:40:57.306Z,74.71
2017-10-12T22:41:57.339Z,74.90
2017-10-12T22:42:57.375Z,74.52
2017-10-12T22:43:57.413Z,74.61
2017-10-12T22:44:57.444Z,74.42
2017-10-12T22:45:57.478Z,74.52
2017-10-12T22:46:57.520Z,74.61
2017-10-12T22:47:57.554Z,74.52
2017-10-12T22:48:57.598Z,74.52
2017-10-12T22:49:57.620Z,74.90
2017-10-12T22:50:57.657Z,74.71
2017-10-12T22:51:57.695Z,74.77
2017-10-12T22:52:57.733Z,74.90
2017-10-12T22:53:57.770Z,74.52
2017-10-12T22:54:57.798Z,74.61
2017-10-12T22:55:57.841Z,75.57
2017-10-12T22:56:57.873Z,75.28
2017-10-12T22:57:57.906Z,75.57
2017-10-12T22:58:57.944Z,75.09
2017-10-12T22:59:57.979Z,75.28
2017-10-12T23:00:58.010Z,75.09
2017-10-12T23:01:58.056Z,75.57
2017-10-12T23:02:58.080Z,75.18
2017-10-12T23:03:58.116Z,74.99
2017-10-12T23:04:58.153Z,75.05
2017-10-12T23:05:58.185Z,75.05
2017-10-12T23:06:58.223Z,74.96
2017-10-12T23:07:58.262Z,74.90
2017-10-12T23:08:58.292Z,75.15
2017-10-12T23:09:58.332Z,75.53
2017-10-12T23:10:58.362Z,75.43
2017-10-12T23:11:58.403Z,75.05
2017-10-12T23:12:58.434Z,75.81
2017-10-12T23:13:58.469Z,75.66
2017-10-12T23:14:58.503Z,75.34
2017-10-12T23:15:58.538Z,75.62
2017-10-12T23:16:58.575Z,75.05
2017-10-12T23:17:58.610Z,75.05
2017-10-12T23:18:58.651Z,75.91
2017-10-12T23:19:58.680Z,75.62
2017-10-12T23:20:58.713Z,75.34
2017-10-12T23:21:58.751Z,75.72
2017-10-12T23:22:58.783Z,75.53
2017-10-12T23:23:58.820Z,75.34
2017-10-12T23:24:58.856Z,75.62
2017-10-12T23:25:58.888Z,75.72
2017-10-12T23:26:58.926Z,76.01
2017-10-12T23:27:58.965Z,75.72
2017-10-12T23:28:58.995Z,76.29
2017-10-12T23:29:59.028Z,75.81
2017-10-12T23:30:59.064Z,76.48
2017-10-12T23:31:59.106Z,76.29
2017-10-12T23:32:59.134Z,76.67
2017-10-12T23:33:59.169Z,76.29
2017-10-12T23:34:59.205Z,76.48
2017-10-12T23:35:59.241Z,76.39
2017-10-12T23:36:59.275Z,76.57
2017-10-12T23:37:59.316Z,76.48
2017-10-12T23:38:59.346Z,76.20
2017-10-12T23:39:59.379Z,76.67
2017-10-12T23:40:59.415Z,76.48
2017-10-12T23:41:59.453Z,76.57
2017-10-12T23:42:59.486Z,76.48
2017-10-12T23:43:59.526Z,76.77
2017-10-12T23:44:59.556Z,76.39
2017-10-12T23:45:59.593Z,76.29
2017-10-12T23:46:59.630Z,76.20
2017-10-12T23:47:59.667Z,76.77
2017-10-12T23:48:59.697Z,76.57
2017-10-12T23:49:59.729Z,76.67
2017-10-12T23:50:59.767Z,76.57
2017-10-12T23:51:59.818Z,76.29
2017-10-12T23:52:59.838Z,76.57
2017-10-12T23:53:59.872Z,76.39
2017-10-12T23:54:59.906Z,76.29
2017-10-12T23:55:59.947Z,76.39
2017-10-12T23:56:59.981Z,76.77
2017-10-12T23:58:00.010Z,76.29
2017-10-12T23:59:00.046Z,76.86
